Latest Weather Observations for Macquarie Island

IDT60801

Issued at 6:32 pm EDT Sunday 26 February 2017 (issued every 30 minutes, with the page automatically refreshed every 10 minutes)

About weather observations | Map of weather stations | Latest weather observations for TAS | Other Formats
Station Details ID: 300004 Name: MACQUARIE ISLAND Lat: -54.50 Lon: 158.94 Height: 6.0 m
Data from the previous 72 hours. | See also: Recent months at Macquarie Island
Date/Time
EDT
Temp
°C
App
Temp
°C
Dew
Point
°C
Rel
Hum
%
Delta-T
°C
Wind Press
QNH
hPa
Press
MSL
hPa
Rain since
9am
mm
Dir  Spd
km/h
Gust
km/h
Spd
kts
Gust
kts
26/06:30pm 8.8 0.0 7.9 94 0.4 NW 44 57 24 31 1001.0 - 0.8
26/06:00pm 8.8 -0.8 7.9 94 0.4 NW 48 61 26 33 1000.9 1001.2 0.4
26/05:30pm 8.8 -1.2 8.0 95 0.4 NW 50 59 27 32 1000.9 - 0.4
26/05:00pm 8.7 0.0 7.9 95 0.4 NNW 43 52 23 28 1000.9 - 0.4
26/04:30pm 8.7 -0.5 7.9 95 0.4 NW 46 57 25 31 1001.1 - 0.4
26/04:00pm 8.7 0.0 7.9 95 0.4 NNW 43 57 23 31 1001.1 - 0.4
26/03:30pm 8.7 -0.2 7.8 94 0.4 NNW 44 59 24 32 1001.2 - 0.4
26/03:00pm 8.8 -0.8 7.9 94 0.4 NW 48 59 26 32 1001.2 1001.5 0.4
26/02:30pm 8.7 -0.9 7.8 94 0.4 NW 48 57 26 31 1001.4 - 0.4
26/02:00pm 8.5 0.2 7.6 94 0.4 NNW 41 54 22 29 1001.5 - 0.4
26/01:30pm 8.7 -0.6 7.6 93 0.5 NW 46 56 25 30 1001.5 - 0.4
26/01:00pm 8.7 -0.6 7.6 93 0.5 NW 46 54 25 29 1001.5 - 0.4
26/12:30pm 8.8 -0.8 7.9 94 0.4 NW 48 56 26 30 1001.4 - 0.4
26/12:00pm 8.7 -0.2 7.6 93 0.5 NW 44 56 24 30 1001.5 1001.8 0.4
26/11:30am 8.6 -0.1 7.7 94 0.4 NW 43 48 23 26 1001.5 - 0.4
26/11:00am 8.5 -0.2 7.6 94 0.4 NW 43 50 23 27 1001.5 - 0.4
26/10:30am 8.7 0.0 7.9 95 0.4 NW 43 50 23 27 1001.5 - 0.4
26/10:00am 8.3 -0.6 7.5 95 0.4 NW 44 50 24 27 1001.4 - 0.4
26/09:30am 8.5 0.2 7.7 95 0.4 NW 41 48 22 26 1001.2 - 0.4
26/09:00am 8.3 0.3 7.5 95 0.4 NW 39 46 21 25 1001.1 1001.4 3.4
26/08:30am 8.1 0.8 7.3 95 0.4 NNW 35 43 19 23 1001.0 - 3.2
26/08:27am 8.0 -0.1 7.2 95 0.4 NNW 39 43 21 23 1001.0 - 3.2
26/08:00am 7.5 -0.3 6.8 95 0.3 N 37 39 20 21 1001.0 - 2.8
26/07:30am 7.4 0.9 6.5 94 0.4 N 30 33 16 18 1001.3 - 2.4
26/07:00am 7.2 1.4 6.1 93 0.5 N 26 30 14 16 1001.6 - 2.2
26/06:30am 7.1 1.6 5.9 92 0.5 NNW 24 28 13 15 1001.8 - 2.0
26/06:00am 7.0 1.8 5.3 89 0.8 NW 22 30 12 16 1002.0 1002.3 1.8
26/05:30am 6.9 0.7 4.2 83 1.2 NW 26 33 14 18 1001.9 - 1.8
26/05:00am 7.0 0.8 4.1 82 1.2 WNW 26 30 14 16 1002.1 - 1.8
26/04:30am 6.8 0.4 3.1 77 1.5 WNW 26 32 14 17 1002.0 - 1.8
26/04:00am 6.6 -1.6 2.5 75 1.7 WNW 35 43 19 23 1002.2 - 1.8
26/03:30am 6.7 -2.3 2.2 73 1.8 W 39 48 21 26 1002.1 - 1.8
26/03:00am 6.8 -2.2 2.7 75 1.7 W 39 48 21 26 1002.1 1002.4 1.8
26/02:30am 6.8 -4.1 1.5 69 2.1 W 48 59 26 32 1002.0 - 1.8
26/02:00am 6.6 -4.2 1.7 71 2.0 W 48 57 26 31 1001.9 - 1.8
26/01:33am 6.6 -2.4 2.7 76 1.6 WNW 39 59 21 32 1001.7 - 1.8
26/01:30am 6.7 -1.8 3.1 78 1.5 WNW 37 48 20 26 1001.7 - 1.8
26/01:00am 6.7 -3.1 3.1 78 1.5 WNW 44 56 24 30 1001.5 - 1.8
26/12:30am 6.7 -4.0 2.4 74 1.8 W 48 59 26 32 1001.3 - 1.8
26/12:00am 6.6 -4.4 2.9 77 1.5 W 50 65 27 35 1001.2 1001.5 1.8
 
Date/Time
EDT
Temp
°C
App
Temp
°C
Dew
Point
°C
Rel
Hum
%
Delta-T
°C
Wind Press
QNH
hPa
Press
MSL
hPa
Rain since
9am
mm
Dir  Spd
km/h
Gust
km/h
Spd
kts
Gust
kts
25/11:30pm 6.4 -4.3 2.7 77 1.5 WNW 48 63 26 34 1001.1 - 1.8
25/11:00pm 6.3 -3.9 3.1 80 1.3 WNW 46 65 25 35 1000.9 - 1.8
25/10:30pm 6.2 -4.5 2.8 79 1.4 W 48 65 26 35 1000.7 - 1.8
25/10:00pm 5.7 -6.5 2.7 81 1.2 W 56 69 30 37 1000.8 - 1.8
25/09:30pm 6.7 -3.9 3.1 78 1.5 WNW 48 63 26 34 1000.8 - 1.6
25/09:00pm 6.5 -4.0 3.5 81 1.3 WNW 48 61 26 33 1000.0 1000.3 1.6
25/08:32pm 6.1 -5.7 2.9 80 1.3 W 54 72 29 39 1000.0 - 1.6
25/08:30pm 6.0 -5.8 2.8 80 1.3 W 54 70 29 38 999.9 - 1.6
25/08:08pm 6.4 -5.8 2.7 77 1.5 W 56 76 30 41 999.8 - 1.4
25/08:00pm 6.8 -4.6 3.1 77 1.5 WNW 52 65 28 35 999.7 - 1.4
25/07:30pm 6.7 -3.5 3.1 78 1.5 WNW 46 57 25 31 999.2 - 1.4
25/07:01pm 6.6 -3.5 3.6 81 1.3 WNW 46 65 25 35 998.8 - 1.4
25/07:00pm 6.6 -3.9 3.6 81 1.3 WNW 48 65 26 35 998.8 - 1.4
25/06:30pm 6.8 -4.5 3.4 79 1.4 WNW 52 63 28 34 998.5 - 1.4
25/06:00pm 6.8 -4.3 2.7 75 1.7 WNW 50 67 27 36 998.5 998.8 1.4
25/05:57pm 7.1 -3.5 3.2 76 1.6 WNW 48 67 26 36 998.5 - 1.4
25/05:50pm 6.8 -4.1 3.4 79 1.4 WNW 50 63 27 34 998.5 - 1.4
25/05:35pm 5.8 -5.2 2.8 81 1.2 W 50 69 27 37 998.9 - 1.4
25/05:34pm 5.9 -4.4 2.9 81 1.2 W 46 61 25 33 998.8 - 1.4
25/05:30pm 6.5 -3.6 3.8 83 1.1 WNW 46 67 25 36 998.5 - 1.2
25/05:00pm 5.8 -6.3 3.1 83 1.1 WNW 56 78 30 42 998.5 - 1.2
25/04:46pm 6.6 -3.6 3.2 79 1.4 WNW 46 65 25 35 998.2 - 1.2
25/04:30pm 6.5 -4.8 3.7 82 1.2 WNW 52 67 28 36 998.3 - 1.2
25/04:00pm 7.1 -3.4 3.9 80 1.4 WNW 48 63 26 34 997.9 - 0.8
25/03:30pm 7.7 -2.5 3.4 74 1.8 WNW 46 61 25 33 998.1 - 0.8
25/03:00pm 6.8 -3.7 3.6 80 1.4 W 48 61 26 33 998.1 998.4 0.8
25/02:30pm 8.7 -1.7 4.1 73 2.0 WNW 48 61 26 33 998.1 - 0.6
25/02:00pm 8.7 -2.1 4.1 73 2.0 WNW 50 63 27 34 998.3 - 0.6
25/01:30pm 7.6 -2.9 3.5 75 1.7 WNW 48 59 26 32 998.4 - 0.6
25/01:00pm 7.8 -3.1 3.5 74 1.8 WNW 50 61 27 33 998.5 - 0.6
25/12:39pm 7.5 -2.7 3.0 73 1.9 W 46 69 25 37 998.5 - 0.6
25/12:30pm 7.6 -2.5 3.5 75 1.7 WNW 46 59 25 32 998.5 - 0.6
25/12:00pm 8.5 -1.2 4.1 74 1.9 WNW 44 52 24 28 998.5 998.8 0.6
25/11:30am 8.5 -1.6 3.9 73 2.0 WNW 46 59 25 32 998.5 - 0.6
25/11:00am 8.4 -1.0 4.2 75 1.8 WNW 43 54 23 29 998.5 - 0.6
25/10:30am 7.8 -1.3 4.2 78 1.6 WNW 41 50 22 27 998.7 - 0.6
25/10:00am 6.6 -2.1 3.9 83 1.2 WNW 39 48 21 26 998.9 - 0.6
25/09:41am 5.9 -2.5 3.9 87 0.8 WNW 37 43 20 23 999.1 - 0.6
25/09:36am 5.9 -6.3 3.7 86 0.9 WNW 57 76 31 41 999.1 - 0.6
25/09:30am 6.6 -6.9 3.0 78 1.5 WNW 63 76 34 41 998.9 - 0.0
25/09:28am 7.8 -1.4 3.7 75 1.8 WNW 41 78 22 42 998.9 - 0.0
25/09:00am 8.2 0.4 4.8 79 1.5 WNW 35 44 19 24 999.0 999.3 0.0
25/08:30am 7.9 0.0 4.3 78 1.6 WNW 35 43 19 23 999.2 - 0.0
25/08:00am 7.2 -1.5 4.3 82 1.3 WNW 39 57 21 31 999.2 - 0.0
25/07:53am 7.7 -1.0 4.3 79 1.5 WNW 39 57 21 31 999.1 - 0.0
25/07:30am 7.5 0.7 5.3 86 1.0 WNW 30 37 16 20 999.2 - 0.0
25/07:00am 6.6 -1.0 3.9 83 1.2 W 33 44 18 24 999.2 - 0.0
25/06:30am 6.7 -0.2 4.5 86 1.0 WNW 30 35 16 19 999.1 - 0.0
25/06:00am 7.1 -0.1 5.1 87 0.9 WNW 32 41 17 22 999.0 999.3 0.0
25/05:30am 7.0 0.2 5.3 89 0.8 WNW 30 33 16 18 999.0 - 0.0
25/05:00am 6.8 0.4 5.1 89 0.7 WNW 28 35 15 19 999.0 - 0.0
25/04:30am 7.0 0.6 5.3 89 0.8 WNW 28 33 15 18 999.1 - 0.0
25/04:00am 7.1 0.7 5.4 89 0.8 WNW 28 33 15 18 999.6 - 0.0
25/03:30am 7.1 1.9 5.3 88 0.8 WNW 22 26 12 14 999.7 - 0.0
25/03:00am 6.9 0.5 5.2 89 0.8 WNW 28 35 15 19 1000.0 1000.3 0.0
25/02:30am 7.8 2.9 6.7 93 0.5 NW 22 26 12 14 1000.1 - 0.0
25/02:00am 7.7 1.9 6.3 91 0.6 NNW 26 30 14 16 1000.2 - 0.0
25/01:30am 7.5 1.7 6.1 91 0.6 NNW 26 30 14 16 1000.6 - 0.0
25/01:00am 7.7 1.6 6.8 94 0.4 NNW 28 32 15 17 1000.9 - 0.0
25/12:30am 7.8 2.1 6.9 94 0.4 N 26 28 14 15 1001.4 - 0.0
25/12:00am 7.8 2.5 6.9 94 0.4 N 24 28 13 15 1001.8 1002.1 0.0
 
Date/Time
EDT
Temp
°C
App
Temp
°C
Dew
Point
°C
Rel
Hum
%
Delta-T
°C
Wind Press
QNH
hPa
Press
MSL
hPa
Rain since
9am
mm
Dir  Spd
km/h
Gust
km/h
Spd
kts
Gust
kts
24/11:30pm 7.8 2.9 6.9 94 0.4 N 22 24 12 13 1002.1 - 0.0
24/11:00pm 7.8 3.3 6.9 94 0.4 N 20 24 11 13 1002.6 - 0.0
24/10:30pm 7.7 3.2 6.8 94 0.4 N 20 22 11 12 1002.9 - 0.0
24/10:00pm 7.7 3.2 6.8 94 0.4 NNW 20 20 11 11 1003.3 - 0.0
24/09:30pm 7.7 3.4 6.8 94 0.4 NNW 19 20 10 11 1003.5 - 0.0
24/09:00pm 7.9 3.4 6.8 93 0.5 NNW 20 24 11 13 1003.9 1004.2 0.0
24/08:30pm 8.0 3.1 6.9 93 0.5 NNW 22 26 12 14 1004.2 - 0.0
24/08:00pm 8.0 3.1 6.9 93 0.5 NNW 22 28 12 15 1004.3 - 0.0
24/07:30pm 8.0 3.1 6.9 93 0.5 NNW 22 24 12 13 1004.3 - 0.0
24/07:00pm 8.2 2.9 7.0 92 0.6 NNW 24 28 13 15 1004.5 - 0.0
24/06:30pm 8.3 2.7 7.1 92 0.6 NNW 26 28 14 15 1004.7 - 0.0
24/06:00pm 8.4 3.1 7.0 91 0.7 NNW 24 26 13 14 1004.7 1005.0 0.0
24/05:30pm 8.5 3.6 7.1 91 0.7 NNW 22 24 12 13 1004.9 - 0.0
24/05:00pm 8.8 4.4 7.4 91 0.7 NNW 20 22 11 12 1005.2 - 0.0
24/04:30pm 8.9 4.6 7.2 89 0.8 NNW 19 20 10 11 1005.6 - 0.0
24/04:00pm 9.0 5.1 7.1 88 0.9 NW 17 22 9 12 1005.6 - 0.0
24/03:30pm 9.9 5.2 7.7 86 1.1 NW 22 24 12 13 1005.7 - 0.0
24/03:00pm 9.2 4.4 7.3 88 0.9 NW 22 24 12 13 1005.7 1006.0 0.0
24/02:30pm 10.2 4.8 7.8 85 1.2 WNW 26 32 14 17 1005.6 - 0.0
24/02:00pm 10.9 5.7 8.8 87 1.0 NW 26 28 14 15 1005.5 - 0.0
24/01:30pm 11.0 5.5 9.3 89 0.8 NW 28 32 15 17 1005.4 - 0.0
24/01:00pm 9.5 3.7 7.8 89 0.8 NW 28 33 15 18 1005.5 - 0.0
24/12:30pm 9.4 2.9 8.2 92 0.6 NW 32 39 17 21 1005.4 - 0.0
24/12:00pm 8.9 2.7 7.8 93 0.5 NNW 30 39 16 21 1005.6 1005.9 0.0
24/11:30am 9.8 3.2 8.4 91 0.7 NNW 33 41 18 22 1005.6 - 0.0
24/11:00am 9.6 2.9 8.2 91 0.7 NNW 33 39 18 21 1005.6 - 0.0
24/10:30am 9.4 2.9 8.0 91 0.7 NNW 32 35 17 19 1005.6 - 0.0
24/10:00am 8.9 3.0 7.7 92 0.6 NNW 28 32 15 17 1005.6 - 0.0
24/09:30am 8.8 3.7 7.7 93 0.5 NNW 24 28 13 15 1005.4 - 0.0
24/09:00am 8.8 3.7 7.7 93 0.5 NW 24 30 13 16 1005.4 1005.7 3.8
24/08:30am 8.9 4.6 7.8 93 0.5 NW 20 24 11 13 1005.3 - 3.8
24/08:00am 8.8 4.1 7.9 94 0.4 NW 22 24 12 13 1005.1 - 3.8
24/07:30am 8.4 3.3 7.5 94 0.4 WNW 24 33 13 18 1004.7 - 3.8
24/07:00am 8.1 0.8 7.3 95 0.4 W 35 39 19 21 1004.2 - 3.8
24/06:30am 7.9 -0.2 7.1 95 0.4 W 39 44 21 24 1003.5 - 3.8
24/06:00am 8.1 0.5 7.5 96 0.3 W 37 44 20 24 1003.1 1003.4 3.8
24/05:30am 8.4 0.1 7.8 96 0.3 W 41 54 22 29 1002.6 - 3.8
24/05:25am 8.5 0.6 7.9 96 0.3 W 39 54 21 29 1002.5 - 3.6
24/05:00am 8.6 1.5 8.0 96 0.3 NW 35 39 19 21 1002.0 - 3.6
24/04:30am 8.5 1.9 7.9 96 0.3 NW 32 35 17 19 1001.6 - 3.6
24/04:00am 8.5 3.8 7.9 96 0.3 NW 22 28 12 15 1001.4 - 3.6
24/03:30am 8.6 3.2 8.0 96 0.3 NW 26 30 14 16 1001.2 - 3.6
24/03:00am 8.6 2.4 8.0 96 0.3 NNW 30 35 16 19 1001.1 1001.4 3.6
24/02:30am 8.7 1.6 8.1 96 0.3 NNW 35 43 19 23 1000.9 - 3.6
24/02:00am 8.8 2.1 8.2 96 0.3 N 33 35 18 19 1000.6 - 3.6
24/01:30am 9.1 2.1 8.5 96 0.3 N 35 41 19 22 1000.5 - 3.6
24/01:00am 9.1 1.4 8.5 96 0.3 N 39 43 21 23 1001.1 - 3.4
24/12:30am 9.4 1.0 8.8 96 0.3 N 43 48 23 26 1001.5 - 3.2
24/12:00am 9.3 1.6 8.7 96 0.3 N 39 44 21 24 1001.8 1002.1 3.2
 
Date/Time
EDT
Temp
°C
App
Temp
°C
Dew
Point
°C
Rel
Hum
%
Delta-T
°C
Wind Press
QNH
hPa
Press
MSL
hPa
Rain since
9am
mm
Dir  Spd
km/h
Gust
km/h
Spd
kts
Gust
kts
23/11:30pm 9.6 0.6 8.8 95 0.4 N 46 52 25 28 1002.0 - 3.2
23/11:00pm 9.9 -0.2 9.1 95 0.4 N 52 57 28 31 1002.3 - 2.8
23/10:30pm 9.8 -0.7 9.0 95 0.4 N 54 59 29 32 1002.6 - 2.4
23/10:00pm 9.9 0.2 9.1 95 0.4 N 50 56 27 30 1002.8 - 2.4
23/09:30pm 9.7 1.1 8.9 95 0.4 N 44 50 24 27 1003.2 - 2.2
23/09:00pm 9.3 0.8 8.5 95 0.4 N 43 50 23 27 1003.5 1003.8 2.0
23/08:30pm 9.3 1.6 8.7 96 0.3 N 39 48 21 26 1003.9 - 1.8
23/08:00pm 9.3 2.0 8.7 96 0.3 N 37 46 20 25 1004.4 - 1.4
23/07:30pm 9.4 2.1 8.8 96 0.3 N 37 44 20 24 1004.7 - 1.0
23/07:00pm 9.3 2.9 8.7 96 0.3 N 32 35 17 19 1005.1 - 0.8

Other Formats:

Comma delimited format used in spreadsheet applications
http://www.bom.gov.au/fwo/IDT60801/IDT60801.94998.axf

JavaScript Object Notation format (JSON) in row-major order
http://www.bom.gov.au/fwo/IDT60801/IDT60801.94998.json